The Farmers Guide 72-hour weather forecast

Enter Postcode:

Scattered Showers

(12:00)

19.1°C

IP2 0SS

Wind Soil
Date Time Weather Temp Rain Humid Cloud Press (mph) Temp Moist
29/06 12:00 19.1°C 0.3mm 63% 32% 1009mb 19ssw (210 degrees) 14.3°C 0.2%
15:00 17.0°C 0.3mm 75% 91% 1007mb 19sw (215 degrees) 14.8°C 0.2%
18:00 15.1°C 0.7mm 88% 96% 1007mb 17sw (214 degrees) 14.7°C 0.2%
21:00 14.8°C 0.4mm 90% 100% 1006mb 17sw (215 degrees) 14.6°C 0.2%
30/06 00:00 14.6°C 1.8mm 96% 99% 1006mb 14sw (218 degrees) 14.5°C 0.2%
03:00 14.4°C 2.7mm 97% 98% 1006mb 8w (260 degrees) 14.4°C 0.2%
06:00 13.6°C 2.7mm 92% 49% 1007mb 9w (273 degrees) 14.1°C 0.2%
09:00 16.8°C 0.0mm 70% 52% 1010mb 10w (266 degrees) 14.3°C 0.2%
12:00 18.9°C 0.0mm 61% 74% 1010mb 10sww (245 degrees) 14.8°C 0.2%
15:00 20.1°C 0.0mm 59% 35% 1010mb 11sw (235 degrees) 15.5°C 0.2%
18:00 18.8°C 0.2mm 71% 35% 1010mb 8sw (225 degrees) 15.9°C 0.2%
21:00 16.9°C 0.0mm 76% 56% 1010mb 11sw (214 degrees) 15.9°C 0.2%
01/07 00:00 14.8°C 0.0mm 84% 50% 1010mb 14sw (216 degrees) 15.6°C 0.2%
03:00 15.1°C 0.4mm 92% 90% 1009mb 15sw (223 degrees) 15.3°C 0.2%
06:00 15.6°C 0.5mm 88% 93% 1010mb 14sw (232 degrees) 15.2°C 0.2%
09:00 15.8°C 0.2mm 87% 96% 1010mb 13sw (230 degrees) 15.1°C 0.2%
12:00 19.6°C 0.7mm 66% 97% 1011mb 16sww (242 degrees) 15.4°C 0.2%
15:00 19.0°C 0.2mm 66% 100% 1010mb 15sww (240 degrees) 15.8°C 0.2%
18:00 17.4°C 0.3mm 71% 98% 1010mb 12sww (238 degrees) 16.0°C 0.2%
21:00 14.2°C 0.0mm 78% 37% 1011mb 11sww (252 degrees) 15.7°C 0.2%
02/07 00:00 11.0°C 0.0mm 81% 35% 1012mb 11sww (249 degrees) 15.1°C 0.2%
03:00 9.8°C 0.0mm 87% 0% 1012mb 10sww (245 degrees) 14.3°C 0.2%
06:00 11.4°C 0.0mm 81% 0% 1013mb 12sww (250 degrees) 13.7°C 0.2%
09:00 15.4°C 0.0mm 65% 0% 1013mb 12sww (253 degrees) 13.8°C 0.2%
The Farmers Guide weather forecast is a free service for users of this website.
 
We now carry forecasts based on postcodes. Just enter your postcode and the weather page will display the forecast for the following 72 hours, broken down into three-hour intervals.
 
The forecast data provided for each three-hour period includes: a general graphic showing the likely weather conditions; average temperatures for the period; cloud cover; barometric pressure; wind speed and direction; humidity; and rainfall.
 
An indication of the likely soil temperature and soil moisture will also be displayed for most postcodes, although this data is not available for every area.
 
We hope you will find this service useful and would welcome any feedback from you.
 
 

Search

Read our full June issue here FREE!

Advertisements